createdAt,value
2019-05-25T00:00:55.271Z,64.26
2019-05-25T00:03:59.296Z,64.25
2019-05-25T00:07:03.595Z,64.41
2019-05-25T00:10:08.405Z,64.51
2019-05-25T00:13:12.434Z,64.59
2019-05-25T00:16:16.485Z,64.79
2019-05-25T00:19:20.765Z,64.91
2019-05-25T00:22:25.112Z,64.97
2019-05-25T00:25:29.186Z,65.03
2019-05-25T00:28:33.462Z,65.17
2019-05-25T00:31:37.336Z,65.29
2019-05-25T00:34:41.881Z,65.32
2019-05-25T00:37:46.052Z,65.37
2019-05-25T00:40:50.074Z,65.44
2019-05-25T00:43:54.603Z,65.47
2019-05-25T00:46:58.556Z,65.65
2019-05-25T00:50:02.582Z,65.76
2019-05-25T00:53:06.569Z,65.84
2019-05-25T00:56:11.218Z,65.95
2019-05-25T00:59:15.314Z,65.99
2019-05-25T01:02:19.332Z,66.03
2019-05-25T01:05:23.673Z,66.16
2019-05-25T01:08:27.881Z,66.33
2019-05-25T01:11:32.115Z,66.44
2019-05-25T01:14:36.140Z,66.78
2019-05-25T01:17:40.451Z,67.27
2019-05-25T01:20:44.955Z,67.31
2019-05-25T01:23:49.208Z,67.30
2019-05-25T01:26:53.416Z,67.27
2019-05-25T01:29:57.944Z,67.48
2019-05-25T01:33:02.473Z,67.40
2019-05-25T01:36:06.572Z,67.37
2019-05-25T01:39:10.508Z,67.49
2019-05-25T01:42:14.794Z,67.79
2019-05-25T01:45:19.415Z,67.86
2019-05-25T01:48:23.352Z,68.23
2019-05-25T01:51:27.552Z,68.42
2019-05-25T01:54:31.819Z,68.55
2019-05-25T01:57:35.847Z,68.66
2019-05-25T02:00:40.354Z,68.63
2019-05-25T02:03:44.356Z,68.82
2019-05-25T02:06:48.370Z,68.80
2019-05-25T02:09:52.375Z,68.86
2019-05-25T02:12:56.819Z,68.57
2019-05-25T02:16:01.087Z,68.46
2019-05-25T02:19:05.576Z,68.42
2019-05-25T02:22:09.880Z,68.39
2019-05-25T02:25:18.356Z,68.28
2019-05-25T02:28:20.493Z,68.17
2019-05-25T02:31:24.828Z,67.93
2019-05-25T02:34:28.829Z,67.67
2019-05-25T02:37:33.064Z,67.33
2019-05-25T02:40:37.430Z,67.38
2019-05-25T02:43:41.433Z,67.43
2019-05-25T02:46:45.811Z,67.67
2019-05-25T02:49:50.546Z,67.44
2019-05-25T02:52:55.248Z,67.33
2019-05-25T02:55:59.189Z,67.36
2019-05-25T02:59:03.244Z,67.24
2019-05-25T03:02:07.545Z,67.11
2019-05-25T03:05:15.486Z,67.00
2019-05-25T03:08:19.597Z,67.04
2019-05-25T03:11:23.735Z,67.27
2019-05-25T03:14:28.102Z,67.11
2019-05-25T03:17:32.415Z,67.05
2019-05-25T03:20:36.739Z,66.99
2019-05-25T03:23:41.005Z,66.91
2019-05-25T03:26:47.478Z,66.89
2019-05-25T03:29:51.637Z,66.82
2019-05-25T03:32:55.918Z,67.20
2019-05-25T03:35:59.872Z,67.39
2019-05-25T03:39:05.865Z,67.54
2019-05-25T03:42:10.137Z,67.33
2019-05-25T03:45:14.162Z,67.05
2019-05-25T03:48:18.502Z,66.89
2019-05-25T03:51:22.800Z,66.80
2019-05-25T03:54:26.858Z,66.86
2019-05-25T03:57:31.167Z,66.83
2019-05-25T04:00:36.741Z,67.04
2019-05-25T04:03:40.647Z,67.07
2019-05-25T04:06:44.828Z,67.04
2019-05-25T04:09:49.042Z,66.86
2019-05-25T04:12:52.992Z,67.02
2019-05-25T04:15:57.280Z,67.65
2019-05-25T04:19:01.161Z,67.89
2019-05-25T04:22:05.619Z,68.01
2019-05-25T04:25:10.147Z,68.34
2019-05-25T04:28:14.360Z,68.62
2019-05-25T04:31:18.689Z,68.70
2019-05-25T04:34:22.728Z,68.70
2019-05-25T04:37:26.964Z,68.61
2019-05-25T04:40:30.953Z,68.53
2019-05-25T04:43:35.665Z,68.60
2019-05-25T04:46:39.925Z,68.57
2019-05-25T04:49:44.041Z,68.62
2019-05-25T04:52:48.223Z,68.73
2019-05-25T04:55:52.732Z,68.87
2019-05-25T04:58:57.269Z,68.94
2019-05-25T05:02:01.877Z,68.88
2019-05-25T05:05:07.092Z,68.70
2019-05-25T05:08:11.383Z,68.73
2019-05-25T05:11:15.712Z,68.82
2019-05-25T05:14:19.809Z,68.72
2019-05-25T05:17:23.744Z,68.74
2019-05-25T05:20:27.786Z,68.61
2019-05-25T05:23:32.274Z,68.68
2019-05-25T05:26:36.505Z,68.41
2019-05-25T05:29:40.977Z,67.97
2019-05-25T05:32:45.351Z,67.59
2019-05-25T05:35:50.439Z,67.23
2019-05-25T05:38:55.529Z,67.08
2019-05-25T05:42:01.053Z,66.64
2019-05-25T05:45:06.217Z,66.23
2019-05-25T05:48:12.537Z,65.83
2019-05-25T05:51:19.993Z,65.44
2019-05-25T05:54:24.143Z,64.97
2019-05-25T05:57:28.131Z,64.57
2019-05-25T06:00:32.172Z,64.30
2019-05-25T06:03:36.663Z,64.01
2019-05-25T06:06:41.053Z,63.82
2019-05-25T06:09:45.617Z,63.46
2019-05-25T06:12:50.246Z,63.17
2019-05-25T06:15:56.080Z,63.02
2019-05-25T06:19:00.434Z,63.13
2019-05-25T06:22:04.717Z,63.04
2019-05-25T06:25:09.586Z,63.08
2019-05-25T06:28:13.859Z,63.24
2019-05-25T06:31:18.283Z,63.58
2019-05-25T06:34:22.297Z,63.87
2019-05-25T06:37:26.869Z,64.04
2019-05-25T06:40:30.892Z,64.03
2019-05-25T06:43:35.149Z,64.02
2019-05-25T06:46:39.920Z,64.29
2019-05-25T06:49:44.171Z,64.45
2019-05-25T06:52:48.203Z,64.62
2019-05-25T06:55:52.154Z,65.24
2019-05-25T06:58:56.608Z,65.45
2019-05-25T07:02:00.684Z,65.45
2019-05-25T07:05:05.577Z,65.61
2019-05-25T07:08:09.894Z,65.71
2019-05-25T07:11:13.925Z,65.71
2019-05-25T07:14:18.236Z,65.58
2019-05-25T07:17:22.659Z,65.93
2019-05-25T07:20:27.462Z,66.54
2019-05-25T07:23:31.514Z,66.73
2019-05-25T07:26:35.551Z,66.76
2019-05-25T07:29:39.829Z,66.62
2019-05-25T07:32:44.090Z,66.50
2019-05-25T07:35:48.306Z,66.43
2019-05-25T07:38:52.377Z,66.22
2019-05-25T07:41:56.648Z,65.92
2019-05-25T07:45:00.957Z,65.38
2019-05-25T07:48:04.995Z,64.54
2019-05-25T07:51:09.418Z,60.84
2019-05-25T07:54:13.954Z,57.15
2019-05-25T07:57:18.247Z,55.77
2019-05-25T08:00:22.284Z,53.34
2019-05-25T08:03:26.739Z,51.82
2019-05-25T08:06:31.451Z,51.41
2019-05-25T08:09:36.120Z,51.66
2019-05-25T08:12:40.695Z,53.11
2019-05-25T08:15:45.097Z,53.11
2019-05-25T08:18:49.603Z,53.27
2019-05-25T08:21:54.647Z,53.35
2019-05-25T08:24:59.765Z,53.32
2019-05-25T08:28:05.430Z,52.66
2019-05-25T08:31:11.059Z,52.31
2019-05-25T08:34:18.242Z,51.88
2019-05-25T08:37:25.690Z,52.01
2019-05-25T08:40:30.053Z,51.94
2019-05-25T08:43:34.266Z,51.55
2019-05-25T08:46:38.678Z,51.63
2019-05-25T08:49:44.290Z,51.45
2019-05-25T08:52:50.832Z,50.75
2019-05-25T08:55:58.395Z,50.65
2019-05-25T08:59:07.197Z,50.59
2019-05-25T09:02:14.767Z,50.38
2019-05-25T09:05:20.398Z,50.58
2019-05-25T09:08:25.030Z,50.06
2019-05-25T09:11:29.105Z,49.81
2019-05-25T09:14:33.156Z,49.64
2019-05-25T09:17:37.262Z,49.82
2019-05-25T09:20:41.284Z,50.60
2019-05-25T09:23:48.594Z,50.29
2019-05-25T09:26:51.290Z,50.19
2019-05-25T09:29:55.324Z,50.19
2019-05-25T09:32:59.642Z,49.79
2019-05-25T09:36:03.681Z,49.67
2019-05-25T09:39:08.713Z,49.28
2019-05-25T09:42:12.658Z,48.73
2019-05-25T09:45:17.545Z,49.32
2019-05-25T09:51:24.641Z,49.37
2019-05-25T09:54:29.082Z,49.67
2019-05-25T09:57:33.446Z,49.16
2019-05-25T10:00:40.380Z,48.70
2019-05-25T10:03:43.208Z,48.26
2019-05-25T10:06:47.485Z,48.34
2019-05-25T10:09:51.502Z,47.64
2019-05-25T10:12:55.572Z,47.35
2019-05-25T10:15:59.521Z,47.01
2019-05-25T10:19:03.874Z,46.62
2019-05-25T10:22:07.883Z,46.22
2019-05-25T10:25:13.335Z,46.16
2019-05-25T10:28:17.339Z,46.02
2019-05-25T10:31:21.593Z,45.56
2019-05-25T10:34:25.532Z,45.83
2019-05-25T10:37:29.612Z,45.20
2019-05-25T10:40:33.824Z,45.42
2019-05-25T10:43:37.845Z,45.26
2019-05-25T10:46:42.144Z,45.02
2019-05-25T10:49:46.465Z,44.67
2019-05-25T10:52:50.477Z,44.28
2019-05-25T10:55:54.841Z,44.10
2019-05-25T10:58:59.021Z,44.00
2019-05-25T11:02:03.135Z,43.93
2019-05-25T11:05:09.382Z,43.95
2019-05-25T11:08:13.639Z,43.53
2019-05-25T11:11:17.997Z,43.38
2019-05-25T11:14:22.054Z,43.30
2019-05-25T11:17:25.912Z,42.99
2019-05-25T11:20:29.938Z,43.23
2019-05-25T11:23:33.941Z,42.90
2019-05-25T11:26:38.553Z,43.43
2019-05-25T11:29:42.865Z,42.77
2019-05-25T11:32:46.874Z,42.28
2019-05-25T11:35:51.249Z,41.81
2019-05-25T11:38:55.280Z,41.53
2019-05-25T11:41:59.788Z,41.48
2019-05-25T11:45:04.138Z,41.39
2019-05-25T11:48:08.505Z,40.97
2019-05-25T11:51:12.780Z,39.63
2019-05-25T11:54:16.797Z,39.29
2019-05-25T11:57:21.137Z,39.58
2019-05-25T12:00:26.222Z,39.97
2019-05-25T12:03:30.233Z,40.34
2019-05-25T12:06:34.169Z,39.32
2019-05-25T12:09:38.445Z,38.49
2019-05-25T12:12:42.696Z,38.63
2019-05-25T12:15:46.877Z,39.58
2019-05-25T12:18:50.874Z,39.43
2019-05-25T12:21:55.124Z,39.56
2019-05-25T12:24:59.447Z,39.45
2019-05-25T12:28:03.535Z,39.31
2019-05-25T12:31:07.577Z,38.28
2019-05-25T12:34:11.805Z,38.27
2019-05-25T12:37:16.175Z,37.82
2019-05-25T12:40:20.864Z,37.94
2019-05-25T12:43:24.716Z,37.51
2019-05-25T12:46:28.691Z,37.87
2019-05-25T12:49:49.389Z,37.86
2019-05-25T12:52:38.758Z,37.68
2019-05-25T12:55:42.982Z,37.61
2019-05-25T12:58:49.558Z,37.26
2019-05-25T13:01:53.059Z,35.97
2019-05-25T13:04:57.507Z,36.03
2019-05-25T13:08:01.513Z,36.14
2019-05-25T13:11:09.388Z,36.57
2019-05-25T13:14:14.471Z,36.51
2019-05-25T13:17:17.310Z,36.46
2019-05-25T13:20:21.321Z,34.69
2019-05-25T13:23:25.555Z,35.04
2019-05-25T13:26:30.321Z,34.59
2019-05-25T13:29:34.565Z,35.53
2019-05-25T13:32:38.546Z,36.07
2019-05-25T13:35:42.602Z,36.42
2019-05-25T13:38:47.317Z,35.92
2019-05-25T13:41:51.377Z,35.42
2019-05-25T13:44:55.933Z,35.52
2019-05-25T13:47:59.923Z,35.47
2019-05-25T13:51:03.973Z,35.40
2019-05-25T13:54:08.289Z,35.40
2019-05-25T13:57:12.925Z,35.44
2019-05-25T14:00:17.434Z,34.72
2019-05-25T14:03:21.381Z,34.42
2019-05-25T14:06:25.455Z,33.57
2019-05-25T14:09:29.755Z,33.16
2019-05-25T14:12:33.711Z,32.85
2019-05-25T14:15:37.990Z,32.74
2019-05-25T14:18:41.994Z,32.32
2019-05-25T14:21:45.921Z,32.18
2019-05-25T14:24:50.088Z,31.90
2019-05-25T14:27:54.022Z,31.01
2019-05-25T14:30:58.034Z,31.00
2019-05-25T14:34:02.037Z,31.00
2019-05-25T14:37:06.287Z,29.97
2019-05-25T14:40:11.912Z,29.46
2019-05-25T14:43:16.472Z,28.83
2019-05-25T14:46:28.001Z,28.86
2019-05-25T14:49:27.224Z,28.80
2019-05-25T14:52:31.244Z,28.86
2019-05-25T14:55:35.665Z,28.89
2019-05-25T14:58:40.237Z,28.40
2019-05-25T15:01:59.591Z,27.97
2019-05-25T15:04:50.321Z,27.73
2019-05-25T15:07:54.702Z,27.92
2019-05-25T15:10:59.021Z,27.57
2019-05-25T15:14:03.375Z,27.72
2019-05-25T15:17:07.364Z,27.53
2019-05-25T15:20:12.348Z,27.56
2019-05-25T15:23:16.618Z,27.27
2019-05-25T15:26:20.565Z,26.98
2019-05-25T15:29:24.868Z,27.04
2019-05-25T15:32:28.968Z,27.33
2019-05-25T15:35:33.014Z,27.31
2019-05-25T15:38:36.886Z,26.75
2019-05-25T15:41:40.829Z,26.62
2019-05-25T15:44:45.958Z,26.52
2019-05-25T15:47:49.969Z,26.48
2019-05-25T15:50:53.967Z,26.50
2019-05-25T15:53:57.999Z,26.21
2019-05-25T15:57:02.019Z,25.86
2019-05-25T16:00:08.068Z,25.89
2019-05-25T16:03:12.134Z,25.47
2019-05-25T16:06:16.132Z,25.41
2019-05-25T16:09:20.403Z,25.09
2019-05-25T16:12:24.348Z,24.96
2019-05-25T16:15:28.562Z,24.96
2019-05-25T16:18:32.955Z,25.16
2019-05-25T16:21:37.500Z,25.23
2019-05-25T16:24:41.521Z,25.54
2019-05-25T16:27:46.165Z,25.60
2019-05-25T16:30:50.505Z,25.41
2019-05-25T16:33:54.542Z,25.86
2019-05-25T16:36:59.090Z,25.94
2019-05-25T16:40:03.442Z,26.14
2019-05-25T16:43:07.456Z,25.93
2019-05-25T16:46:11.537Z,26.48
2019-05-25T16:49:16.868Z,27.41
2019-05-25T16:52:20.812Z,28.14
2019-05-25T16:55:25.076Z,29.48
2019-05-25T16:58:29.672Z,30.40
2019-05-25T17:01:47.430Z,30.61
2019-05-25T17:04:39.429Z,31.31
2019-05-25T17:07:43.443Z,30.76
2019-05-25T17:10:47.441Z,30.94
2019-05-25T17:13:51.753Z,30.42
2019-05-25T17:16:55.899Z,30.93
2019-05-25T17:20:00.075Z,31.53
2019-05-25T17:23:04.442Z,31.96
2019-05-25T17:26:08.506Z,31.02
2019-05-25T17:29:12.823Z,30.72
2019-05-25T17:32:16.836Z,31.25
2019-05-25T17:35:20.871Z,31.96
2019-05-25T17:38:24.969Z,30.92
2019-05-25T17:41:28.993Z,30.30
2019-05-25T17:44:33.374Z,30.02
2019-05-25T17:47:37.693Z,29.03
2019-05-25T17:50:41.737Z,28.13
2019-05-25T17:53:46.003Z,27.78
2019-05-25T17:56:50.526Z,27.55
2019-05-25T17:59:54.802Z,27.75
2019-05-25T18:02:58.738Z,27.98
2019-05-25T18:06:02.759Z,28.27
2019-05-25T18:09:08.087Z,28.63
2019-05-25T18:12:12.089Z,29.07
2019-05-25T18:15:16.222Z,29.63
2019-05-25T18:18:21.228Z,31.83
2019-05-25T18:21:25.176Z,33.32
2019-05-25T18:24:29.566Z,34.53
2019-05-25T18:27:34.090Z,34.87
2019-05-25T18:30:38.376Z,35.14
2019-05-25T18:33:42.372Z,35.62
2019-05-25T18:36:46.664Z,36.48
2019-05-25T18:39:50.686Z,37.40
2019-05-25T18:42:54.550Z,38.01
2019-05-25T18:45:58.633Z,38.63
2019-05-25T18:49:02.942Z,39.34
2019-05-25T18:52:07.240Z,39.94
2019-05-25T18:55:11.478Z,40.69
2019-05-25T18:58:15.919Z,41.01
2019-05-25T19:01:19.951Z,41.47
2019-05-25T19:04:41.846Z,41.79
2019-05-25T19:07:30.100Z,42.34
2019-05-25T19:10:34.153Z,42.68
2019-05-25T19:13:38.816Z,43.24
2019-05-25T19:16:43.360Z,43.80
2019-05-25T19:19:47.688Z,44.23
2019-05-25T19:22:52.110Z,44.84
2019-05-25T19:25:56.432Z,45.43
2019-05-25T19:29:00.445Z,45.92
2019-05-25T19:32:04.552Z,46.71
2019-05-25T19:35:09.813Z,47.52
2019-05-25T19:38:13.759Z,48.20
2019-05-25T19:41:18.675Z,49.03
2019-05-25T19:44:23.292Z,49.61
2019-05-25T19:47:27.641Z,49.85
2019-05-25T19:50:31.660Z,50.04
2019-05-25T19:53:35.892Z,50.09
2019-05-25T19:56:39.914Z,50.42
2019-05-25T19:59:44.117Z,50.62
2019-05-25T20:02:48.638Z,50.98
2019-05-25T20:05:53.342Z,51.70
2019-05-25T20:08:57.670Z,52.06
2019-05-25T20:12:02.527Z,51.99
2019-05-25T20:15:07.136Z,52.68
2019-05-25T20:18:11.140Z,53.01
2019-05-25T20:21:15.404Z,53.44
2019-05-25T20:24:19.931Z,53.74
2019-05-25T20:27:24.285Z,53.93
2019-05-25T20:30:28.653Z,54.44
2019-05-25T20:33:35.000Z,55.37
2019-05-25T20:36:38.905Z,55.37
2019-05-25T20:39:42.940Z,55.54
2019-05-25T20:42:47.362Z,55.87
2019-05-25T20:45:51.328Z,56.18
2019-05-25T20:48:55.264Z,56.51
2019-05-25T20:51:59.445Z,56.80
2019-05-25T20:55:04.045Z,57.48
2019-05-25T20:58:08.138Z,58.00
2019-05-25T21:01:12.641Z,58.16
2019-05-25T21:04:17.008Z,58.29
2019-05-25T21:07:21.287Z,58.30
2019-05-25T21:10:25.182Z,58.67
2019-05-25T21:13:29.137Z,59.02
2019-05-25T21:16:33.903Z,59.19
2019-05-25T21:19:38.333Z,59.68
2019-05-25T21:22:42.559Z,60.08
2019-05-25T21:25:46.988Z,60.27
2019-05-25T21:28:51.388Z,60.29
2019-05-25T21:31:55.669Z,60.39
2019-05-25T21:34:59.828Z,60.28
2019-05-25T21:38:03.784Z,60.38
2019-05-25T21:41:08.677Z,60.54
2019-05-25T21:44:12.628Z,61.00
2019-05-25T21:47:16.599Z,61.26
2019-05-25T21:50:20.665Z,61.40
2019-05-25T21:53:24.696Z,61.33
2019-05-25T21:56:28.685Z,61.44
2019-05-25T21:59:33.001Z,61.59
2019-05-25T22:02:37.133Z,61.70
2019-05-25T22:05:41.397Z,61.74
2019-05-25T22:08:45.300Z,61.94
2019-05-25T22:11:49.292Z,62.53
2019-05-25T22:14:53.663Z,62.50
2019-05-25T22:17:57.933Z,62.67
2019-05-25T22:21:02.011Z,62.94
2019-05-25T22:24:06.047Z,63.13
2019-05-25T22:27:10.505Z,63.06
2019-05-25T22:30:15.172Z,63.42
2019-05-25T22:33:21.697Z,63.86
2019-05-25T22:36:39.210Z,63.89
2019-05-25T22:39:31.380Z,64.02
2019-05-25T22:42:35.434Z,64.22
2019-05-25T22:45:39.316Z,64.17
2019-05-25T22:48:49.087Z,64.32
2019-05-25T22:51:53.117Z,64.45
2019-05-25T22:54:57.095Z,64.53
2019-05-25T22:58:01.639Z,64.75
2019-05-25T23:01:05.655Z,64.94
2019-05-25T23:04:09.843Z,64.95
2019-05-25T23:07:14.213Z,65.03
2019-05-25T23:10:18.718Z,65.17
2019-05-25T23:13:22.924Z,65.35
2019-05-25T23:16:27.175Z,65.36
2019-05-25T23:19:31.458Z,65.60
2019-05-25T23:22:35.511Z,65.84
2019-05-25T23:25:39.788Z,66.08
2019-05-25T23:28:44.117Z,66.14
2019-05-25T23:31:47.975Z,66.39
2019-05-25T23:34:51.919Z,66.43
2019-05-25T23:37:56.261Z,66.49
2019-05-25T23:41:00.284Z,66.53
2019-05-25T23:44:04.288Z,66.73
2019-05-25T23:47:08.575Z,66.98
2019-05-25T23:50:13.136Z,67.13
2019-05-25T23:53:17.086Z,67.20
2019-05-25T23:56:21.013Z,67.11
2019-05-25T23:59:25.583Z,67.12
